createdAt,value
2022-08-26T00:02:02.420Z,98599.21
2022-08-26T00:04:50.355Z,98597.34
2022-08-26T00:07:38.098Z,98600.27
2022-08-26T00:10:25.968Z,98593.78
2022-08-26T00:13:14.817Z,98587.30
2022-08-26T00:16:03.206Z,98582.53
2022-08-26T00:18:53.141Z,98587.62
2022-08-26T00:21:40.792Z,98582.31
2022-08-26T00:24:28.445Z,98580.44
2022-08-26T00:27:15.905Z,98582.64
2022-08-26T00:30:05.392Z,98583.30
2022-08-26T00:32:53.008Z,98585.00
2022-08-26T00:35:41.200Z,98578.63
2022-08-26T00:38:30.344Z,98571.34
2022-08-26T00:41:19.423Z,98577.06
2022-08-26T00:44:06.968Z,98576.30
2022-08-26T00:46:58.975Z,98576.34
2022-08-26T00:49:48.071Z,98580.78
2022-08-26T00:52:36.248Z,98577.55
2022-08-26T00:55:38.028Z,98575.22
2022-08-26T00:58:26.392Z,98575.80
2022-08-26T01:01:14.043Z,98580.34
2022-08-26T01:04:02.048Z,98581.26
2022-08-26T01:06:52.440Z,98584.30
2022-08-26T01:09:39.999Z,98581.18
2022-08-26T01:12:29.553Z,98585.72
2022-08-26T01:15:21.944Z,98587.22
2022-08-26T01:18:09.304Z,98585.91
2022-08-26T01:21:19.255Z,98588.95
2022-08-26T01:24:07.672Z,98590.09
2022-08-26T01:27:03.505Z,98587.77
2022-08-26T01:29:51.936Z,98587.66
2022-08-26T01:32:42.012Z,98584.33
2022-08-26T01:35:30.399Z,98592.23
2022-08-26T01:38:18.559Z,98591.45
2022-08-26T01:41:16.354Z,98592.39
2022-08-26T01:43:57.890Z,98588.58
2022-08-26T01:46:47.072Z,98591.97
2022-08-26T01:49:36.768Z,98590.72
2022-08-26T01:52:28.272Z,98593.05
2022-08-26T01:55:27.660Z,98589.10
2022-08-26T01:58:06.544Z,98593.98
2022-08-26T02:00:54.106Z,98597.43
2022-08-26T02:03:45.062Z,98592.34
2022-08-26T02:06:34.312Z,98596.05
2022-08-26T02:09:22.114Z,98590.72
2022-08-26T02:12:11.448Z,98591.39
2022-08-26T02:15:00.839Z,98593.14
2022-08-26T02:17:48.880Z,98590.95
2022-08-26T02:20:38.000Z,98588.07
2022-08-26T02:23:25.188Z,98581.58
2022-08-26T02:26:18.022Z,98582.85
2022-08-26T02:29:12.887Z,98581.02
2022-08-26T02:32:01.967Z,98578.23
2022-08-26T02:34:49.520Z,98579.74
2022-08-26T02:37:37.001Z,98579.37
2022-08-26T02:40:28.993Z,98579.02
2022-08-26T02:43:17.165Z,98575.30
2022-08-26T02:46:06.008Z,98577.98
2022-08-26T02:48:53.836Z,98579.37
2022-08-26T02:51:41.347Z,98581.69
2022-08-26T02:54:30.495Z,98578.22
2022-08-26T02:57:19.687Z,98581.02
2022-08-26T03:00:11.049Z,98581.47
2022-08-26T03:02:59.226Z,98578.69
2022-08-26T03:05:47.416Z,98579.51
2022-08-26T03:08:34.575Z,98575.34
2022-08-26T03:11:21.855Z,98573.03
2022-08-26T03:14:09.217Z,98575.20
2022-08-26T03:16:56.639Z,98577.86
2022-08-26T03:19:44.243Z,98574.05
2022-08-26T03:22:31.463Z,98570.55
2022-08-26T03:25:19.233Z,98566.73
2022-08-26T03:28:06.559Z,98561.66
2022-08-26T03:30:57.172Z,98559.13
2022-08-26T03:33:44.424Z,98555.77
2022-08-26T03:36:33.647Z,98555.77
2022-08-26T03:39:22.607Z,98553.31
2022-08-26T03:42:10.708Z,98557.95
2022-08-26T03:44:58.521Z,98552.84
2022-08-26T03:47:45.655Z,98553.43
2022-08-26T03:50:34.399Z,98547.52
2022-08-26T03:53:23.912Z,98554.14
2022-08-26T03:56:11.960Z,98547.73
2022-08-26T03:59:00.087Z,98550.06
2022-08-26T04:01:47.425Z,98552.48
2022-08-26T04:04:37.520Z,98552.61
2022-08-26T04:07:26.080Z,98549.75
2022-08-26T04:10:15.426Z,98553.89
2022-08-26T04:13:04.876Z,98556.78
2022-08-26T04:15:52.324Z,98557.36
2022-08-26T04:18:40.613Z,98558.01
2022-08-26T04:21:30.098Z,98545.81
2022-08-26T04:24:18.304Z,98545.81
2022-08-26T04:27:06.761Z,98549.45
2022-08-26T04:29:55.711Z,98553.02
2022-08-26T04:32:43.207Z,98552.02
2022-08-26T04:35:31.311Z,98547.36
2022-08-26T04:38:20.071Z,98549.19
2022-08-26T04:41:15.708Z,98552.74
2022-08-26T04:43:59.015Z,98551.34
2022-08-26T04:46:46.617Z,98546.75
2022-08-26T04:49:35.248Z,98552.74
2022-08-26T04:52:22.848Z,98553.39
2022-08-26T04:55:10.976Z,98556.98
2022-08-26T04:57:58.449Z,98554.98
2022-08-26T05:00:47.671Z,98552.52
2022-08-26T05:03:34.884Z,98556.66
2022-08-26T05:06:22.248Z,98558.05
2022-08-26T05:09:09.495Z,98555.91
2022-08-26T05:11:56.904Z,98560.28
2022-08-26T05:14:43.928Z,98552.27
2022-08-26T05:17:31.553Z,98557.95
2022-08-26T05:20:22.638Z,98557.17
2022-08-26T05:23:08.370Z,98556.19
2022-08-26T05:25:59.261Z,98554.55
2022-08-26T05:28:46.667Z,98552.73
2022-08-26T05:31:36.348Z,98556.62
2022-08-26T05:34:23.855Z,98560.66
2022-08-26T05:37:13.657Z,98555.33
2022-08-26T05:40:02.913Z,98558.33
2022-08-26T05:42:53.143Z,98556.73
2022-08-26T05:45:46.084Z,98556.11
2022-08-26T05:48:32.632Z,98552.52
2022-08-26T05:51:25.887Z,98553.30
2022-08-26T05:54:11.167Z,98547.89
2022-08-26T05:56:58.961Z,98548.33
2022-08-26T05:59:46.208Z,98550.45
2022-08-26T06:02:33.309Z,98552.19
2022-08-26T06:05:21.256Z,98550.50
2022-08-26T06:08:13.671Z,98546.39
2022-08-26T06:11:02.815Z,98547.72
2022-08-26T06:13:50.087Z,98547.81
2022-08-26T06:16:40.739Z,98544.30
2022-08-26T06:19:32.736Z,98546.61
2022-08-26T06:22:36.152Z,98546.05
2022-08-26T06:25:39.186Z,98542.53
2022-08-26T06:28:27.505Z,98546.98
2022-08-26T06:31:15.960Z,98550.02
2022-08-26T06:34:10.341Z,98552.86
2022-08-26T06:36:54.080Z,98546.21
2022-08-26T06:39:41.991Z,98553.48
2022-08-26T06:42:29.842Z,98558.31
2022-08-26T06:45:17.588Z,98561.91
2022-08-26T06:48:05.783Z,98562.89
2022-08-26T06:51:06.656Z,98556.20
2022-08-26T06:53:55.961Z,98559.62
2022-08-26T06:56:45.455Z,98556.33
2022-08-26T06:59:34.505Z,98552.03
2022-08-26T07:02:22.735Z,98553.94
2022-08-26T07:05:10.713Z,98553.91
2022-08-26T07:07:58.967Z,98556.83
2022-08-26T07:10:46.170Z,98551.89
2022-08-26T07:13:35.624Z,98551.17
2022-08-26T07:16:23.391Z,98547.25
2022-08-26T07:19:11.616Z,98548.14
2022-08-26T07:22:03.648Z,98546.44
2022-08-26T07:24:51.867Z,98545.87
2022-08-26T07:27:39.856Z,98547.14
2022-08-26T07:30:27.776Z,98548.25
2022-08-26T07:33:14.873Z,98551.17
2022-08-26T07:36:02.657Z,98549.69
2022-08-26T07:38:53.048Z,98551.44
2022-08-26T07:41:40.823Z,98549.30
2022-08-26T07:44:27.945Z,98547.63
2022-08-26T07:47:24.694Z,98546.77
2022-08-26T07:50:05.792Z,98541.58
2022-08-26T07:52:53.649Z,98542.27
2022-08-26T07:55:41.015Z,98536.45
2022-08-26T07:58:30.297Z,98540.38
2022-08-26T08:01:17.641Z,98532.52
2022-08-26T08:04:06.278Z,98532.53
2022-08-26T08:06:55.295Z,98527.27
2022-08-26T08:09:42.840Z,98533.00
2022-08-26T08:12:30.216Z,98533.05
2022-08-26T08:15:20.327Z,98530.77
2022-08-26T08:18:07.227Z,98527.80
2022-08-26T08:21:10.873Z,98528.27
2022-08-26T08:23:45.575Z,98521.43
2022-08-26T08:26:34.913Z,98524.45
2022-08-26T08:29:22.807Z,98524.06
2022-08-26T08:32:11.629Z,98526.48
2022-08-26T08:35:00.196Z,98515.77
2022-08-26T08:37:48.231Z,98518.03
2022-08-26T08:40:36.483Z,98518.26
2022-08-26T08:43:41.359Z,98517.41
2022-08-26T08:46:30.381Z,98519.03
2022-08-26T08:49:18.560Z,98522.67
2022-08-26T08:52:23.808Z,98517.27
2022-08-26T08:55:17.754Z,98522.34
2022-08-26T08:58:12.263Z,98519.86
2022-08-26T09:01:04.811Z,98519.86
2022-08-26T09:04:07.919Z,98509.48
2022-08-26T09:09:48.856Z,98502.08
2022-08-26T09:12:36.751Z,98494.23
2022-08-26T09:18:31.440Z,98506.23
2022-08-26T09:21:22.551Z,98506.23
2022-08-26T09:24:11.314Z,98500.71
2022-08-26T09:27:00.200Z,98493.89
2022-08-26T09:29:50.387Z,98487.59
2022-08-26T09:32:36.603Z,98496.11
2022-08-26T09:35:31.178Z,98493.94
2022-08-26T09:38:26.890Z,98487.45
2022-08-26T09:41:26.882Z,98486.97
2022-08-26T09:44:19.207Z,98490.77
2022-08-26T09:47:08.975Z,98489.80
2022-08-26T09:50:13.504Z,98486.38
2022-08-26T09:53:28.782Z,98489.01
2022-08-26T09:56:15.335Z,98487.03
2022-08-26T09:59:04.016Z,98480.45
2022-08-26T10:01:53.236Z,98471.68
2022-08-26T10:04:40.737Z,98468.84
2022-08-26T10:07:39.000Z,98469.46
2022-08-26T10:10:38.205Z,98470.05
2022-08-26T10:13:35.770Z,98465.03
2022-08-26T10:16:25.587Z,98465.12
2022-08-26T10:19:25.639Z,98460.77
2022-08-26T10:22:32.039Z,98467.61
2022-08-26T10:25:31.736Z,98465.50
2022-08-26T10:28:22.448Z,98456.63
2022-08-26T10:31:42.092Z,98458.02
2022-08-26T10:34:29.527Z,98458.70
2022-08-26T10:37:24.703Z,98452.84
2022-08-26T10:43:21.119Z,98451.42
2022-08-26T10:46:16.100Z,98458.34
2022-08-26T10:49:13.991Z,98451.37
2022-08-26T10:52:12.384Z,98451.48
2022-08-26T10:55:22.265Z,98442.14
2022-08-26T10:58:26.714Z,98444.68
2022-08-26T11:01:41.598Z,98439.60
2022-08-26T11:04:51.690Z,98435.16
2022-08-26T11:07:48.648Z,98441.81
2022-08-26T11:10:48.530Z,98430.41
2022-08-26T11:13:59.455Z,98429.50
2022-08-26T11:20:00.332Z,98441.19
2022-08-26T11:22:39.754Z,98428.00
2022-08-26T11:25:30.906Z,98424.04
2022-08-26T11:28:20.258Z,98420.83
2022-08-26T11:31:27.291Z,98412.44
2022-08-26T11:34:15.879Z,98417.83
2022-08-26T11:37:05.144Z,98424.00
2022-08-26T11:39:57.097Z,98412.98
2022-08-26T11:42:59.667Z,98412.88
2022-08-26T11:45:49.555Z,98416.94
2022-08-26T11:48:43.355Z,98407.93
2022-08-26T11:51:31.958Z,98400.80
2022-08-26T11:54:26.919Z,98414.91
2022-08-26T11:57:13.634Z,98409.61
2022-08-26T12:00:01.605Z,98413.80
2022-08-26T12:02:49.864Z,98408.09
2022-08-26T12:05:39.759Z,98410.47
2022-08-26T12:08:29.099Z,98403.44
2022-08-26T12:11:21.891Z,98401.62
2022-08-26T12:14:18.745Z,98399.79
2022-08-26T12:17:17.575Z,98397.75
2022-08-26T12:20:07.783Z,98395.73
2022-08-26T12:22:55.682Z,98390.92
2022-08-26T12:25:44.216Z,98392.67
2022-08-26T12:28:33.703Z,98389.34
2022-08-26T12:31:29.724Z,98383.11
2022-08-26T12:34:18.624Z,98387.03
2022-08-26T12:37:06.239Z,98381.84
2022-08-26T12:39:54.987Z,98377.65
2022-08-26T12:42:43.511Z,98373.62
2022-08-26T12:45:45.091Z,98372.50
2022-08-26T12:48:36.172Z,98378.76
2022-08-26T12:51:26.232Z,98364.97
2022-08-26T12:54:17.823Z,98363.68
2022-08-26T12:57:12.775Z,98358.50
2022-08-26T13:00:19.592Z,98357.87
2022-08-26T13:03:46.803Z,98355.64
2022-08-26T13:06:35.089Z,98355.67
2022-08-26T13:09:25.646Z,98350.97
2022-08-26T13:12:13.400Z,98345.37
2022-08-26T13:15:02.241Z,98349.61
2022-08-26T13:17:50.135Z,98351.22
2022-08-26T13:20:40.860Z,98351.87
2022-08-26T13:23:28.335Z,98348.17
2022-08-26T13:26:15.718Z,98340.02
2022-08-26T13:29:06.253Z,98335.77
2022-08-26T13:31:53.017Z,98343.17
2022-08-26T13:34:40.734Z,98345.58
2022-08-26T13:37:34.384Z,98340.66
2022-08-26T13:40:17.513Z,98342.23
2022-08-26T13:43:04.937Z,98338.08
2022-08-26T13:45:52.470Z,98337.66
2022-08-26T13:48:41.100Z,98335.84
2022-08-26T13:51:30.584Z,98331.02
2022-08-26T13:54:18.224Z,98337.56
2022-08-26T13:57:06.303Z,98331.82
2022-08-26T13:59:54.159Z,98334.23
2022-08-26T14:02:41.855Z,98336.05
2022-08-26T14:05:30.248Z,98329.39
2022-08-26T14:08:18.096Z,98320.31
2022-08-26T14:11:05.593Z,98320.62
2022-08-26T14:13:53.047Z,98323.41
2022-08-26T14:16:59.718Z,98325.64
2022-08-26T14:19:31.371Z,98324.02
2022-08-26T14:22:21.082Z,98323.81
2022-08-26T14:25:08.992Z,98323.00
2022-08-26T14:27:58.271Z,98320.38
2022-08-26T14:30:49.273Z,98323.14
2022-08-26T14:33:38.434Z,98319.28
2022-08-26T14:36:28.682Z,98318.19
2022-08-26T14:39:15.895Z,98327.41
2022-08-26T14:42:03.431Z,98318.77
2022-08-26T14:44:56.400Z,98310.50
2022-08-26T14:47:43.816Z,98308.66
2022-08-26T14:50:31.248Z,98302.56
2022-08-26T14:53:36.559Z,98302.24
2022-08-26T14:56:24.351Z,98301.02
2022-08-26T14:59:14.391Z,98304.64
2022-08-26T15:02:02.284Z,98301.20
2022-08-26T15:04:50.727Z,98299.88
2022-08-26T15:07:39.111Z,98303.00
2022-08-26T15:10:26.891Z,98298.58
2022-08-26T15:13:14.566Z,98296.51
2022-08-26T15:16:02.279Z,98292.72
2022-08-26T15:18:51.359Z,98288.45
2022-08-26T15:21:38.842Z,98283.45
2022-08-26T15:24:29.063Z,98282.88
2022-08-26T15:27:16.983Z,98283.03
2022-08-26T15:30:07.648Z,98284.20
2022-08-26T15:32:55.400Z,98284.08
2022-08-26T15:35:42.946Z,98281.83
2022-08-26T15:38:32.808Z,98280.58
2022-08-26T15:41:20.447Z,98279.52
2022-08-26T15:44:08.662Z,98280.58
2022-08-26T15:46:58.622Z,98274.44
2022-08-26T15:49:45.683Z,98277.91
2022-08-26T15:52:33.095Z,98276.27
2022-08-26T15:55:20.933Z,98277.83
2022-08-26T15:58:10.687Z,98278.47
2022-08-26T16:00:58.240Z,98280.52
2022-08-26T16:03:46.463Z,98276.91
2022-08-26T16:06:36.754Z,98280.11
2022-08-26T16:09:26.668Z,98273.47
2022-08-26T16:15:01.655Z,98273.94
2022-08-26T16:17:49.256Z,98274.29
2022-08-26T16:20:39.231Z,98273.51
2022-08-26T16:23:27.159Z,98272.84
2022-08-26T16:26:17.920Z,98263.92
2022-08-26T16:29:08.720Z,98258.88
2022-08-26T16:31:56.223Z,98260.59
2022-08-26T16:34:56.793Z,98258.48
2022-08-26T16:37:37.674Z,98258.79
2022-08-26T16:40:25.150Z,98254.45
2022-08-26T16:43:15.271Z,98256.73
2022-08-26T16:46:02.257Z,98251.12
2022-08-26T16:48:49.855Z,98253.52
2022-08-26T16:51:38.002Z,98253.69
2022-08-26T16:54:26.479Z,98252.03
2022-08-26T16:57:14.529Z,98256.20
2022-08-26T17:00:05.183Z,98249.93
2022-08-26T17:02:54.108Z,98258.21
2022-08-26T17:05:41.882Z,98255.23
2022-08-26T17:08:29.098Z,98264.82
2022-08-26T17:11:16.839Z,98257.22
2022-08-26T17:14:04.406Z,98257.22
2022-08-26T17:16:53.719Z,98263.41
2022-08-26T17:19:47.092Z,98267.05
2022-08-26T17:22:34.509Z,98263.61
2022-08-26T17:25:29.816Z,98270.34
2022-08-26T17:28:17.440Z,98266.48
2022-08-26T17:31:05.307Z,98264.46
2022-08-26T17:33:54.258Z,98265.39
2022-08-26T17:36:42.033Z,98267.45
2022-08-26T17:39:29.248Z,98269.95
2022-08-26T17:42:16.337Z,98263.52
2022-08-26T17:45:04.105Z,98264.14
2022-08-26T17:47:52.454Z,98268.88
2022-08-26T17:50:41.443Z,98257.95
2022-08-26T17:53:29.625Z,98259.69
2022-08-26T17:56:19.047Z,98264.39
2022-08-26T17:59:06.233Z,98260.02
2022-08-26T18:01:55.677Z,98267.09
2022-08-26T18:04:43.265Z,98261.33
2022-08-26T18:07:33.793Z,98265.58
2022-08-26T18:10:24.824Z,98267.00
2022-08-26T18:13:14.266Z,98263.77
2022-08-26T18:16:03.463Z,98266.59
2022-08-26T18:18:52.888Z,98269.81
2022-08-26T18:21:40.400Z,98268.63
2022-08-26T18:24:29.465Z,98265.39
2022-08-26T18:27:17.089Z,98265.59
2022-08-26T18:30:07.249Z,98263.38
2022-08-26T18:32:54.706Z,98258.39
2022-08-26T18:35:44.184Z,98262.38
2022-08-26T18:38:31.539Z,98263.59
2022-08-26T18:41:22.000Z,98260.38
2022-08-26T18:44:13.414Z,98264.39
2022-08-26T18:46:58.881Z,98261.17
2022-08-26T18:49:47.402Z,98256.34
2022-08-26T18:52:34.912Z,98253.88
2022-08-26T18:55:22.240Z,98250.67
2022-08-26T18:58:09.884Z,98254.27
2022-08-26T19:00:58.943Z,98257.45
2022-08-26T19:03:50.107Z,98249.81
2022-08-26T19:06:39.609Z,98257.40
2022-08-26T19:09:27.450Z,98255.36
2022-08-26T19:12:15.225Z,98258.52
2022-08-26T19:15:03.360Z,98261.30
2022-08-26T19:17:50.912Z,98257.08
2022-08-26T19:20:46.671Z,98257.08
2022-08-26T19:23:32.838Z,98248.86
2022-08-26T19:26:20.671Z,98247.41
2022-08-26T19:29:08.296Z,98241.33
2022-08-26T19:31:55.832Z,98248.11
2022-08-26T19:34:43.629Z,98250.51
2022-08-26T19:37:31.537Z,98250.08
2022-08-26T19:40:19.305Z,98253.69
2022-08-26T19:43:07.000Z,98253.85
2022-08-26T19:45:54.478Z,98255.19
2022-08-26T19:48:45.369Z,98258.77
2022-08-26T19:51:35.586Z,98264.94
2022-08-26T19:54:23.361Z,98265.50
2022-08-26T19:57:11.129Z,98267.09
2022-08-26T20:00:00.785Z,98268.06
2022-08-26T20:02:49.033Z,98269.66
2022-08-26T20:05:36.796Z,98263.26
2022-08-26T20:08:24.825Z,98266.66
2022-08-26T20:11:14.586Z,98261.30
2022-08-26T20:14:02.016Z,98272.83
2022-08-26T20:16:49.655Z,98272.83
2022-08-26T20:19:54.897Z,98276.52
2022-08-26T20:22:42.440Z,98275.59
2022-08-26T20:25:30.778Z,98279.73
2022-08-26T20:28:18.882Z,98271.27
2022-08-26T20:31:07.640Z,98276.02
2022-08-26T20:33:57.535Z,98277.95
2022-08-26T20:36:46.216Z,98283.06
2022-08-26T20:39:33.936Z,98283.80
2022-08-26T20:42:21.552Z,98284.59
2022-08-26T20:45:09.689Z,98284.00
2022-08-26T20:47:57.314Z,98288.36
2022-08-26T20:50:46.489Z,98295.36
2022-08-26T20:53:34.431Z,98300.15
2022-08-26T20:56:24.366Z,98294.59
2022-08-26T20:59:12.256Z,98307.44
2022-08-26T21:02:00.823Z,98303.49
2022-08-26T21:04:48.658Z,98300.80
2022-08-26T21:07:36.399Z,98299.75
2022-08-26T21:10:23.804Z,98309.80
2022-08-26T21:13:11.143Z,98313.34
2022-08-26T21:15:59.434Z,98317.36
2022-08-26T21:18:47.911Z,98320.79
2022-08-26T21:21:35.186Z,98318.42
2022-08-26T21:24:23.464Z,98317.96
2022-08-26T21:27:10.639Z,98320.49
2022-08-26T21:29:57.768Z,98324.63
2022-08-26T21:32:45.271Z,98322.81
2022-08-26T21:35:32.764Z,98328.02
2022-08-26T21:38:21.342Z,98321.16
2022-08-26T21:41:13.033Z,98326.16
2022-08-26T21:44:01.170Z,98331.65
2022-08-26T21:46:49.958Z,98318.64
2022-08-26T21:49:37.263Z,98323.69
2022-08-26T21:52:24.877Z,98319.67
2022-08-26T21:55:12.304Z,98318.06
2022-08-26T21:57:59.321Z,98320.41
2022-08-26T22:00:53.444Z,98312.70
2022-08-26T22:03:47.464Z,98317.55
2022-08-26T22:06:30.638Z,98312.69
2022-08-26T22:09:26.239Z,98314.95
2022-08-26T22:12:15.550Z,98316.45
2022-08-26T22:15:03.679Z,98316.30
2022-08-26T22:17:51.089Z,98310.61
2022-08-26T22:20:39.327Z,98306.14
2022-08-26T22:23:39.275Z,98307.25
2022-08-26T22:26:27.222Z,98299.93
2022-08-26T22:29:14.784Z,98303.20
2022-08-26T22:32:02.862Z,98302.92
2022-08-26T22:34:50.167Z,98301.38
2022-08-26T22:37:37.619Z,98297.46
2022-08-26T22:40:25.241Z,98303.27
2022-08-26T22:43:13.079Z,98307.09
2022-08-26T22:46:00.606Z,98302.61
2022-08-26T22:48:53.864Z,98298.69
2022-08-26T22:51:37.422Z,98292.63
2022-08-26T22:54:24.593Z,98288.13
2022-08-26T22:57:11.903Z,98288.06
2022-08-26T22:59:59.703Z,98284.64
2022-08-26T23:02:47.126Z,98281.23
2022-08-26T23:05:35.388Z,98277.88
2022-08-26T23:08:23.294Z,98271.05
2022-08-26T23:11:12.358Z,98269.65
2022-08-26T23:14:00.023Z,98271.64
2022-08-26T23:16:49.017Z,98266.34
2022-08-26T23:19:36.727Z,98268.09
2022-08-26T23:22:24.071Z,98269.39
2022-08-26T23:25:12.047Z,98262.70
2022-08-26T23:28:00.727Z,98264.80
2022-08-26T23:30:48.862Z,98268.91
2022-08-26T23:33:54.056Z,98265.00
2022-08-26T23:36:43.383Z,98267.27
2022-08-26T23:39:36.654Z,98257.36
2022-08-26T23:42:24.367Z,98256.55
2022-08-26T23:45:16.630Z,98255.19
2022-08-26T23:48:04.712Z,98265.63
2022-08-26T23:51:10.118Z,98255.72
2022-08-26T23:53:58.128Z,98256.53
2022-08-26T23:56:45.713Z,98258.16
2022-08-26T23:59:34.177Z,98256.39
